createdAt,value
2018-02-25T00:02:10.835Z,94.80
2018-02-25T00:04:43.775Z,95.30
2018-02-25T00:07:19.423Z,95.30
2018-02-25T00:09:56.717Z,95.60
2018-02-25T00:12:33.658Z,95.60
2018-02-25T00:15:14.753Z,95.50
2018-02-25T00:17:48.948Z,95.70
2018-02-25T00:20:30.627Z,96.00
2018-02-25T00:23:11.576Z,96.00
2018-02-25T00:25:53.036Z,95.90
2018-02-25T00:28:30.220Z,96.10
2018-02-25T00:31:04.528Z,96.10
2018-02-25T00:33:44.999Z,96.20
2018-02-25T00:36:20.858Z,96.20
2018-02-25T00:38:56.469Z,96.50
2018-02-25T00:41:37.274Z,96.50
2018-02-25T00:44:16.617Z,96.30
2018-02-25T00:46:56.570Z,96.10
2018-02-25T00:49:36.235Z,95.50
2018-02-25T00:52:20.352Z,95.40
2018-02-25T00:54:59.474Z,95.80
2018-02-25T00:57:36.634Z,95.80
2018-02-25T01:00:17.321Z,95.50
2018-02-25T01:03:03.106Z,96.30
2018-02-25T01:05:38.017Z,96.30
2018-02-25T01:08:15.120Z,96.60
2018-02-25T01:10:47.906Z,96.30
2018-02-25T01:13:29.876Z,96.10
2018-02-25T01:20:35.016Z,96.10
2018-02-25T01:23:13.575Z,95.80
2018-02-25T01:26:00.439Z,96.50
2018-02-25T01:28:47.582Z,96.10
2018-02-25T01:31:30.838Z,96.10
2018-02-25T01:34:12.575Z,95.00
2018-02-25T01:37:00.358Z,94.40
2018-02-25T01:39:46.702Z,94.70
2018-02-25T01:42:36.246Z,95.70
2018-02-25T01:45:26.392Z,95.00
2018-02-25T01:48:05.171Z,95.00
2018-02-25T01:51:07.331Z,92.10
2018-02-25T01:53:52.866Z,92.20
2018-02-25T01:56:41.442Z,92.90
2018-02-25T01:59:27.560Z,93.80
2018-02-25T02:02:11.116Z,93.20
2018-02-25T02:04:59.953Z,93.20
2018-02-25T02:07:53.741Z,92.80
2018-02-25T02:10:57.101Z,92.90
2018-02-25T02:13:57.003Z,92.20
2018-02-25T02:16:46.833Z,92.00
2018-02-25T02:19:38.141Z,92.00
2018-02-25T02:22:37.567Z,92.30
2018-02-25T02:25:27.691Z,92.80
2018-02-25T02:28:18.785Z,91.90
2018-02-25T02:31:02.865Z,92.90
2018-02-25T02:33:49.525Z,92.40
2018-02-25T02:36:43.279Z,91.60
2018-02-25T02:39:28.622Z,91.60
2018-02-25T02:42:14.597Z,91.60
2018-02-25T02:45:08.794Z,92.00
2018-02-25T02:47:50.061Z,92.30
2018-02-25T02:50:37.359Z,92.30
2018-02-25T02:53:23.121Z,93.00
2018-02-25T02:56:14.936Z,93.50
2018-02-25T02:59:02.692Z,93.50
2018-02-25T03:01:55.922Z,93.00
2018-02-25T03:04:49.857Z,93.00
2018-02-25T03:07:41.111Z,93.30
2018-02-25T03:10:35.457Z,93.50
2018-02-25T03:13:32.522Z,93.50
2018-02-25T03:19:25.217Z,91.90
2018-02-25T03:27:40.831Z,91.50
2018-02-25T03:30:21.805Z,91.50
2018-02-25T03:33:01.053Z,92.30
2018-02-25T03:35:41.004Z,92.30
2018-02-25T03:38:16.065Z,92.20
2018-02-25T03:40:48.410Z,92.00
2018-02-25T03:43:19.619Z,92.00
2018-02-25T03:45:50.502Z,91.60
2018-02-25T03:48:26.668Z,91.30
2018-02-25T03:51:00.774Z,91.50
2018-02-25T03:53:30.790Z,91.60
2018-02-25T03:59:50.707Z,91.60
2018-02-25T04:02:20.984Z,91.60
2018-02-25T04:04:55.340Z,91.50
2018-02-25T04:07:26.831Z,91.90
2018-02-25T04:09:59.034Z,92.00
2018-02-25T04:12:30.981Z,92.60
2018-02-25T04:15:05.091Z,92.10
2018-02-25T05:04:34.657Z,92.80
2018-02-25T05:07:09.115Z,92.80
2018-02-25T05:25:13.964Z,92.20
2018-02-25T05:43:20.031Z,91.50
2018-02-25T05:45:50.786Z,91.10
2018-02-25T05:51:47.060Z,91.10
2018-02-25T05:54:19.292Z,90.40
2018-02-25T05:56:52.327Z,90.00
2018-02-25T06:36:08.135Z,88.20
2018-02-25T06:38:37.755Z,87.30
2018-02-25T06:41:07.754Z,86.50
2018-02-25T06:43:38.683Z,86.10
2018-02-25T06:46:09.391Z,85.70
2018-02-25T06:48:39.500Z,85.70
2018-02-25T06:51:11.225Z,86.40
2018-02-25T06:53:42.233Z,86.30
2018-02-25T06:56:14.727Z,86.80
2018-02-25T06:58:47.575Z,87.70
2018-02-25T07:01:18.255Z,87.50
2018-02-25T07:03:47.955Z,87.50
2018-02-25T07:06:17.843Z,87.40
2018-02-25T07:08:48.655Z,88.10
2018-02-25T07:11:18.381Z,87.50
2018-02-25T07:13:48.079Z,87.50
2018-02-25T07:16:18.835Z,87.10
2018-02-25T07:18:49.483Z,87.10
2018-02-25T07:21:19.774Z,87.70
2018-02-25T07:23:53.543Z,87.50
2018-02-25T07:26:25.566Z,87.60
2018-02-25T07:28:59.529Z,89.90
2018-02-25T07:31:29.817Z,88.60
2018-02-25T07:34:00.520Z,88.60
2018-02-25T07:36:30.288Z,88.60
2018-02-25T07:38:59.991Z,88.60
2018-02-25T07:41:39.850Z,89.20
2018-02-25T07:44:10.415Z,88.60
2018-02-25T07:46:41.590Z,88.30
2018-02-25T07:49:13.773Z,88.40
2018-02-25T07:51:46.350Z,88.30
2018-02-25T07:54:16.240Z,88.30
2018-02-25T07:56:46.042Z,89.10
2018-02-25T07:59:15.746Z,88.30
2018-02-25T08:01:47.199Z,88.80
2018-02-25T08:04:17.018Z,88.80
2018-02-25T08:06:46.585Z,89.90
2018-02-25T08:09:17.912Z,89.30
2018-02-25T08:11:47.613Z,89.40
2018-02-25T08:14:17.310Z,90.00
2018-02-25T08:16:58.266Z,89.60
2018-02-25T08:19:32.401Z,90.30
2018-02-25T08:22:02.079Z,90.80
2018-02-25T08:24:31.905Z,90.70
2018-02-25T08:27:01.629Z,90.80
2018-02-25T08:29:31.245Z,92.20
2018-02-25T08:32:01.883Z,91.60
2018-02-25T08:34:31.623Z,91.00
2018-02-25T08:37:13.616Z,91.30
2018-02-25T08:39:47.068Z,91.80
2018-02-25T08:42:22.139Z,93.20
2018-02-25T08:44:51.808Z,92.90
2018-02-25T08:47:21.651Z,92.60
2018-02-25T08:49:52.108Z,92.60
2018-02-25T08:52:21.649Z,92.30
2018-02-25T09:30:11.182Z,95.20
2018-02-25T09:33:02.137Z,95.20
2018-02-25T09:36:15.433Z,95.40
2018-02-25T09:38:58.312Z,94.70
2018-02-25T09:57:08.594Z,95.30
2018-02-25T09:59:46.927Z,95.30
2018-02-25T10:02:29.622Z,94.70
2018-02-25T10:05:29.996Z,94.70
2018-02-25T10:08:01.878Z,95.30
2018-02-25T10:10:34.386Z,95.50
2018-02-25T10:13:04.656Z,95.60
2018-02-25T10:15:39.185Z,94.20
2018-02-25T10:22:25.738Z,93.90
2018-02-25T10:25:22.607Z,93.10
2018-02-25T10:52:11.037Z,94.20
2018-02-25T10:54:41.801Z,94.30
2018-02-25T10:57:11.320Z,94.30
2018-02-25T10:59:42.003Z,94.70
2018-02-25T11:02:15.560Z,95.70
2018-02-25T11:51:26.631Z,93.90
2018-02-25T11:53:56.378Z,93.90
2018-02-25T11:56:26.188Z,92.50
2018-02-25T11:58:56.312Z,93.00
2018-02-25T12:16:56.268Z,91.70
2018-02-25T13:17:33.605Z,90.00
2018-02-25T13:20:03.469Z,88.40
2018-02-25T13:22:34.047Z,89.30
2018-02-25T13:25:03.826Z,89.30
2018-02-25T13:27:35.279Z,87.50
2018-02-25T13:43:38.551Z,88.00
2018-02-25T13:48:57.819Z,89.90
2018-02-25T14:05:50.753Z,88.90
2018-02-25T14:08:21.051Z,88.60
2018-02-25T14:10:50.573Z,88.60
2018-02-25T14:13:20.213Z,88.60
2018-02-25T14:15:49.948Z,87.80
2018-02-25T14:18:21.338Z,86.80
2018-02-25T14:20:51.024Z,87.40
2018-02-25T14:23:21.567Z,87.20
2018-02-25T14:25:51.531Z,87.20
2018-02-25T14:28:21.196Z,87.10
2018-02-25T14:30:56.190Z,86.30
2018-02-25T14:33:26.026Z,87.70
2018-02-25T14:35:55.830Z,87.00
2018-02-25T14:38:25.576Z,88.20
2018-02-25T14:40:56.374Z,88.40
2018-02-25T14:43:26.073Z,88.40
2018-02-25T14:45:55.708Z,88.10
2018-02-25T14:48:25.641Z,88.60
2018-02-25T14:50:55.421Z,89.30
2018-02-25T14:53:26.053Z,89.30
2018-02-25T14:55:55.666Z,89.90
2018-02-25T14:58:26.924Z,90.10
2018-02-25T15:01:05.142Z,89.00
2018-02-25T15:03:38.241Z,90.60
2018-02-25T15:08:44.193Z,90.50
2018-02-25T15:11:14.508Z,91.50
2018-02-25T15:13:44.435Z,90.80
2018-02-25T15:16:13.913Z,90.50
2018-02-25T15:18:43.595Z,89.40
2018-02-25T15:21:13.488Z,89.50
2018-02-25T15:24:03.249Z,90.20
2018-02-25T15:26:33.750Z,88.80
2018-02-25T15:29:03.406Z,88.80
2018-02-25T15:47:08.395Z,89.40
2018-02-25T15:49:38.450Z,87.40
2018-02-25T16:13:54.758Z,85.10
2018-02-25T16:16:25.785Z,81.90
2018-02-25T16:18:58.143Z,82.00
2018-02-25T16:21:28.675Z,85.20
2018-02-25T16:23:58.313Z,85.20
2018-02-25T16:29:54.727Z,83.40
2018-02-25T16:32:25.402Z,83.40
2018-02-25T16:34:56.053Z,83.20
2018-02-25T16:44:41.081Z,86.10
2018-02-25T16:47:11.356Z,86.00
2018-02-25T16:49:41.386Z,85.80
2018-02-25T16:52:11.890Z,85.70
2018-02-25T16:54:42.182Z,87.70
2018-02-25T16:57:12.877Z,87.60
2018-02-25T16:59:44.062Z,87.60
2018-02-25T17:02:13.929Z,88.40
2018-02-25T17:04:46.070Z,89.30
2018-02-25T17:07:15.786Z,89.30
2018-02-25T17:09:45.418Z,89.70
2018-02-25T17:12:16.876Z,90.00
2018-02-25T17:14:47.352Z,91.40
2018-02-25T17:17:18.162Z,91.30
2018-02-25T17:19:49.048Z,89.60
2018-02-25T17:22:18.846Z,88.90
2018-02-25T17:24:48.662Z,89.70
2018-02-25T17:27:18.498Z,90.00
2018-02-25T17:29:53.873Z,90.40
2018-02-25T17:32:26.045Z,90.40
2018-02-25T17:34:56.112Z,90.70
2018-02-25T17:49:30.698Z,92.40
2018-02-25T17:52:01.075Z,93.00
2018-02-25T17:54:34.652Z,93.40
2018-02-25T17:57:05.497Z,93.30
2018-02-25T17:59:39.096Z,93.60
2018-02-25T18:02:08.954Z,93.70
2018-02-25T18:04:42.030Z,93.20
2018-02-25T18:14:53.244Z,93.50
2018-02-25T18:18:28.520Z,93.40
2018-02-25T18:21:02.162Z,92.80
2018-02-25T18:23:31.941Z,92.90
2018-02-25T18:33:58.506Z,91.60
2018-02-25T18:36:33.701Z,91.80
2018-02-25T18:39:15.744Z,91.80
2018-02-25T18:41:49.332Z,91.90
2018-02-25T18:44:19.041Z,91.40
2018-02-25T18:46:51.768Z,91.80
2018-02-25T18:49:23.208Z,92.10
2018-02-25T18:52:01.342Z,92.60
2018-02-25T18:54:35.066Z,92.60
2018-02-25T19:11:24.845Z,89.90
2018-02-25T19:13:54.810Z,89.50
2018-02-25T19:16:24.901Z,90.10
2018-02-25T19:18:55.669Z,89.30
2018-02-25T19:21:26.174Z,89.20
2018-02-25T19:23:57.325Z,89.10
2018-02-25T19:26:28.591Z,88.30
2018-02-25T19:28:59.336Z,88.70
2018-02-25T19:31:29.308Z,88.70
2018-02-25T19:33:59.270Z,89.50
2018-02-25T19:39:29.610Z,89.10
2018-02-25T19:42:02.984Z,88.50
2018-02-25T19:44:41.969Z,88.50
2018-02-25T19:47:15.316Z,88.80
2018-02-25T19:49:53.092Z,89.00
2018-02-25T19:52:28.682Z,87.90
2018-02-25T19:55:04.682Z,87.10
2018-02-25T19:57:45.759Z,87.10
2018-02-25T20:00:52.962Z,86.00
2018-02-25T20:03:27.010Z,86.00
2018-02-25T20:05:58.751Z,85.70
2018-02-25T20:08:30.918Z,85.90
2018-02-25T20:11:02.834Z,85.70
2018-02-25T20:13:34.405Z,85.80
2018-02-25T20:16:06.698Z,85.60
2018-02-25T20:18:36.965Z,85.80
2018-02-25T20:21:08.260Z,85.90
2018-02-25T20:23:38.417Z,85.90
2018-02-25T20:26:16.231Z,85.60
2018-02-25T20:29:04.991Z,87.00
2018-02-25T20:31:55.975Z,87.20
2018-02-25T20:34:35.346Z,88.70
2018-02-25T20:37:06.566Z,87.90
2018-02-25T20:39:36.263Z,87.90
2018-02-25T20:42:05.788Z,87.50
2018-02-25T20:44:35.594Z,86.90
2018-02-25T20:47:05.510Z,86.70
2018-02-25T20:49:35.078Z,87.70
2018-02-25T20:52:04.747Z,88.10
2018-02-25T20:54:34.370Z,87.40
2018-02-25T20:57:04.837Z,88.30
2018-02-25T20:59:34.431Z,88.30
2018-02-25T21:02:04.087Z,88.80
2018-02-25T21:04:38.553Z,88.80
2018-02-25T21:07:08.805Z,89.60
2018-02-25T21:09:38.432Z,89.60
2018-02-25T21:12:07.971Z,90.10
2018-02-25T21:14:37.594Z,90.00
2018-02-25T21:17:08.184Z,89.20
2018-02-25T21:19:37.892Z,89.20
2018-02-25T21:22:08.030Z,90.10
2018-02-25T21:24:38.541Z,90.30
2018-02-25T21:27:08.092Z,90.30
2018-02-25T21:29:38.428Z,90.30
2018-02-25T21:32:08.791Z,90.20
2018-02-25T21:34:38.652Z,90.20
2018-02-25T21:37:09.059Z,90.40
2018-02-25T21:39:38.880Z,90.40
2018-02-25T21:42:08.660Z,90.60
2018-02-25T21:44:38.280Z,90.80
2018-02-25T21:47:09.446Z,90.50
2018-02-25T21:49:39.171Z,90.60
2018-02-25T21:52:09.717Z,90.70
2018-02-25T21:54:49.335Z,90.80
2018-02-25T21:57:25.295Z,91.40
2018-02-25T22:00:01.427Z,90.60
2018-02-25T22:02:36.327Z,90.60
2018-02-25T22:05:06.232Z,91.60
2018-02-25T22:07:36.028Z,91.60
2018-02-25T22:10:05.682Z,91.70
2018-02-25T22:12:35.637Z,92.10
2018-02-25T22:15:06.610Z,91.90
2018-02-25T22:17:36.203Z,91.80
2018-02-25T22:20:05.894Z,92.20
2018-02-25T22:22:35.690Z,92.30
2018-02-25T22:25:06.212Z,92.80
2018-02-25T22:27:36.827Z,92.30
2018-02-25T22:30:06.464Z,92.20
2018-02-25T22:32:36.562Z,92.00
2018-02-25T22:35:10.165Z,92.30
2018-02-25T22:37:50.823Z,92.30
2018-02-25T22:40:23.626Z,92.00
2018-02-25T22:42:53.776Z,92.10
2018-02-25T22:45:23.664Z,92.00
2018-02-25T22:48:05.796Z,92.20
2018-02-25T22:50:35.375Z,91.50
2018-02-25T22:53:05.096Z,92.30
2018-02-25T22:55:35.365Z,92.60
2018-02-25T22:58:05.027Z,93.10
2018-02-25T23:00:35.463Z,93.60
2018-02-25T23:03:06.878Z,93.60
2018-02-25T23:05:36.982Z,94.10
2018-02-25T23:08:07.049Z,94.40
2018-02-25T23:10:37.981Z,94.80
2018-02-25T23:13:09.869Z,95.10
2018-02-25T23:15:39.981Z,95.50
2018-02-25T23:18:09.779Z,95.70
2018-02-25T23:20:39.352Z,96.00
2018-02-25T23:23:09.561Z,96.20
2018-02-25T23:25:39.477Z,96.40
2018-02-25T23:28:09.397Z,96.10
2018-02-25T23:30:39.283Z,96.10
2018-02-25T23:33:09.643Z,96.30
